createdAt,value
2018-02-15T00:01:12.959Z,42.25
2018-02-15T00:02:49.557Z,18.25
2018-02-15T00:04:25.854Z,35.75
2018-02-15T00:06:02.619Z,26.50
2018-02-15T00:07:39.842Z,56.25
2018-02-15T00:09:16.158Z,30.50
2018-02-15T00:10:52.464Z,33.00
2018-02-15T00:12:28.784Z,21.25
2018-02-15T00:14:05.732Z,18.75
2018-02-15T00:15:42.802Z,62.75
2018-02-15T00:17:19.167Z,55.50
2018-02-15T00:18:56.376Z,34.75
2018-02-15T00:20:33.264Z,67.75
2018-02-15T00:22:10.075Z,51.25
2018-02-15T00:23:47.143Z,70.25
2018-02-15T00:25:23.415Z,31.50
2018-02-15T00:27:00.079Z,31.75
2018-02-15T00:28:36.354Z,21.75
2018-02-15T00:30:12.859Z,36.25
2018-02-15T00:31:50.716Z,42.75
2018-02-15T00:33:27.357Z,53.00
2018-02-15T00:35:03.704Z,19.50
2018-02-15T00:36:43.181Z,30.25
2018-02-15T00:38:21.694Z,40.75
2018-02-15T00:39:58.627Z,17.00
2018-02-15T00:41:57.487Z,35.00
2018-02-15T00:43:34.642Z,30.50
2018-02-15T00:45:34.375Z,17.50
2018-02-15T00:47:11.234Z,20.00
2018-02-15T00:48:47.609Z,35.00
2018-02-15T00:50:24.073Z,36.00
2018-02-15T00:52:00.852Z,63.75
2018-02-15T00:53:37.116Z,29.00
2018-02-15T00:55:40.948Z,46.00
2018-02-15T00:57:17.644Z,60.75
2018-02-15T00:58:53.937Z,43.50
2018-02-15T01:00:34.154Z,40.00
2018-02-15T01:02:10.736Z,51.50
2018-02-15T01:03:47.364Z,17.75
2018-02-15T01:05:26.124Z,44.25
2018-02-15T01:07:02.480Z,36.75
2018-02-15T01:08:39.251Z,25.00
2018-02-15T01:10:15.999Z,15.00
2018-02-15T01:11:52.237Z,35.00
2018-02-15T01:13:29.269Z,28.00
2018-02-15T01:15:05.605Z,30.00
2018-02-15T01:16:42.293Z,31.75
2018-02-15T01:18:18.872Z,31.00
2018-02-15T01:19:55.596Z,15.50
2018-02-15T01:21:32.398Z,35.50
2018-02-15T01:23:09.647Z,19.75
2018-02-15T01:24:46.035Z,21.25
2018-02-15T01:26:22.914Z,26.00
2018-02-15T01:27:59.251Z,22.50
2018-02-15T01:29:36.074Z,20.00
2018-02-15T01:31:13.269Z,20.75
2018-02-15T01:32:50.338Z,21.25
2018-02-15T01:34:26.641Z,53.25
2018-02-15T01:36:03.448Z,27.25
2018-02-15T01:37:39.776Z,31.00
2018-02-15T01:39:16.058Z,56.25
2018-02-15T01:40:52.352Z,23.25
2018-02-15T01:42:29.093Z,52.25
2018-02-15T01:44:05.842Z,57.25
2018-02-15T01:45:43.331Z,23.25
2018-02-15T01:47:21.274Z,14.00
2018-02-15T01:48:57.994Z,29.00
2018-02-15T01:50:35.001Z,31.75
2018-02-15T01:53:45.304Z,36.00
2018-02-15T01:55:21.925Z,18.25
2018-02-15T01:56:59.367Z,53.50
2018-02-15T01:58:35.760Z,27.00
2018-02-15T02:00:16.532Z,47.25
2018-02-15T02:01:53.562Z,19.75
2018-02-15T02:03:29.883Z,22.75
2018-02-15T02:05:07.030Z,43.00
2018-02-15T02:06:43.343Z,45.50
2018-02-15T02:08:20.851Z,47.50
2018-02-15T02:09:57.091Z,16.25
2018-02-15T02:11:33.472Z,31.00
2018-02-15T02:13:10.918Z,47.00
2018-02-15T02:14:47.546Z,24.75
2018-02-15T02:16:24.871Z,20.50
2018-02-15T02:18:18.110Z,16.00
2018-02-15T02:19:54.996Z,16.00
2018-02-15T02:21:44.749Z,18.50
2018-02-15T02:23:21.342Z,38.00
2018-02-15T02:24:57.966Z,47.50
2018-02-15T02:26:34.385Z,34.00
2018-02-15T02:28:10.777Z,22.25
2018-02-15T02:29:47.928Z,21.75
2018-02-15T02:31:25.921Z,36.50
2018-02-15T02:34:36.257Z,14.00
2018-02-15T02:36:13.341Z,23.50
2018-02-15T02:37:50.726Z,50.75
2018-02-15T02:39:27.162Z,26.75
2018-02-15T02:41:03.537Z,15.75
2018-02-15T02:42:39.846Z,29.50
2018-02-15T02:44:16.637Z,50.50
2018-02-15T02:45:53.134Z,47.00
2018-02-15T02:47:29.467Z,56.75
2018-02-15T02:49:05.800Z,41.75
2018-02-15T02:50:42.620Z,25.25
2018-02-15T02:52:18.988Z,15.50
2018-02-15T02:53:55.299Z,22.25
2018-02-15T02:55:32.596Z,35.50
2018-02-15T02:57:09.334Z,31.50
2018-02-15T02:58:45.663Z,37.00
2018-02-15T03:00:25.498Z,20.00
2018-02-15T03:02:02.634Z,52.50
2018-02-15T03:03:39.829Z,43.25
2018-02-15T03:05:16.207Z,49.75
2018-02-15T03:06:52.648Z,57.25
2018-02-15T03:08:29.934Z,60.00
2018-02-15T03:10:06.816Z,21.25
2018-02-15T03:11:43.139Z,28.50
2018-02-15T03:13:19.531Z,37.50
2018-02-15T03:14:55.884Z,13.25
2018-02-15T03:16:34.318Z,29.25
2018-02-15T03:18:10.660Z,22.25
2018-02-15T03:19:47.005Z,18.50
2018-02-15T03:21:23.738Z,19.50
2018-02-15T03:23:00.449Z,33.25
2018-02-15T03:24:38.191Z,33.75
2018-02-15T03:26:14.516Z,22.00
2018-02-15T03:27:50.814Z,30.00
2018-02-15T03:29:27.524Z,47.75
2018-02-15T03:31:04.473Z,28.25
2018-02-15T03:32:40.934Z,17.25
2018-02-15T03:34:17.336Z,52.75
2018-02-15T03:35:54.053Z,41.50
2018-02-15T03:37:31.230Z,67.75
2018-02-15T03:39:08.315Z,15.75
2018-02-15T03:40:45.406Z,22.75
2018-02-15T03:42:22.274Z,26.25
2018-02-15T03:43:59.354Z,50.50
2018-02-15T03:45:37.473Z,61.00
2018-02-15T03:47:14.586Z,18.25
2018-02-15T03:48:51.368Z,26.25
2018-02-15T03:50:27.807Z,55.25
2018-02-15T03:52:04.141Z,40.50
2018-02-15T03:53:40.494Z,32.00
2018-02-15T03:55:17.240Z,53.75
2018-02-15T03:56:53.634Z,60.25
2018-02-15T03:58:29.921Z,18.25
2018-02-15T04:00:06.400Z,46.00
2018-02-15T04:01:43.357Z,30.25
2018-02-15T04:03:19.676Z,19.25
2018-02-15T04:04:55.961Z,20.25
2018-02-15T04:06:32.309Z,20.50
2018-02-15T04:08:13.092Z,49.25
2018-02-15T04:09:49.402Z,23.50
2018-02-15T04:11:26.553Z,26.00
2018-02-15T04:13:02.879Z,55.25
2018-02-15T04:14:39.594Z,46.50
2018-02-15T04:16:16.111Z,41.00
2018-02-15T04:17:52.582Z,61.50
2018-02-15T04:19:29.872Z,38.75
2018-02-15T04:21:06.705Z,55.00
2018-02-15T04:22:43.372Z,65.75
2018-02-15T04:24:19.709Z,39.25
2018-02-15T04:25:56.218Z,21.25
2018-02-15T04:27:32.851Z,53.00
2018-02-15T04:29:09.156Z,74.25
2018-02-15T04:30:46.576Z,67.50
2018-02-15T04:32:22.935Z,68.00
2018-02-15T04:34:01.096Z,68.00
2018-02-15T04:35:38.187Z,58.75
2018-02-15T04:37:15.290Z,69.75
2018-02-15T04:38:51.547Z,83.75
2018-02-15T04:40:28.133Z,70.25
2018-02-15T04:42:05.258Z,41.75
2018-02-15T04:43:41.556Z,90.00
2018-02-15T04:45:19.187Z,74.75
2018-02-15T04:46:56.223Z,75.25
2018-02-15T04:50:04.553Z,38.00
2018-02-15T04:51:41.693Z,64.25
2018-02-15T04:53:18.337Z,91.50
2018-02-15T04:54:54.575Z,56.00
2018-02-15T04:56:30.821Z,93.50
2018-02-15T04:58:07.107Z,84.25
2018-02-15T04:59:44.736Z,115.25
2018-02-15T05:01:22.033Z,97.25
2018-02-15T05:02:58.397Z,85.50
2018-02-15T05:04:34.730Z,73.00
2018-02-15T05:06:11.473Z,66.50
2018-02-15T05:07:47.853Z,110.50
2018-02-15T05:09:25.049Z,90.50
2018-02-15T05:11:02.153Z,115.50
2018-02-15T05:12:39.381Z,96.75
2018-02-15T05:14:15.769Z,112.50
2018-02-15T05:15:52.543Z,96.25
2018-02-15T05:17:28.897Z,47.25
2018-02-15T05:19:05.658Z,124.50
2018-02-15T05:20:42.013Z,118.75
2018-02-15T05:22:18.339Z,81.25
2018-02-15T05:23:54.652Z,109.25
2018-02-15T05:25:32.165Z,96.50
2018-02-15T05:27:09.256Z,92.25
2018-02-15T05:28:46.352Z,118.50
2018-02-15T05:30:24.460Z,43.75
2018-02-15T05:32:01.269Z,160.75
2018-02-15T05:33:38.205Z,83.25
2018-02-15T05:35:14.561Z,86.50
2018-02-15T05:36:51.535Z,73.25
2018-02-15T05:38:29.114Z,121.75
2018-02-15T05:40:06.386Z,94.50
2018-02-15T05:41:42.911Z,122.50
2018-02-15T05:43:19.963Z,70.50
2018-02-15T05:44:56.356Z,137.50
2018-02-15T05:46:34.159Z,87.25
2018-02-15T05:48:10.472Z,115.25
2018-02-15T05:49:46.850Z,100.50
2018-02-15T05:51:23.602Z,118.00
2018-02-15T05:52:59.959Z,114.25
2018-02-15T05:54:37.317Z,57.25
2018-02-15T05:56:13.654Z,59.50
2018-02-15T05:57:51.194Z,82.50
2018-02-15T05:59:27.540Z,88.00
2018-02-15T06:01:04.145Z,86.50
2018-02-15T06:02:40.682Z,45.50
2018-02-15T06:04:17.431Z,80.50
2018-02-15T06:05:53.757Z,96.00
2018-02-15T06:07:30.036Z,88.00
2018-02-15T06:09:06.621Z,88.50
2018-02-15T06:10:44.168Z,57.75
2018-02-15T06:12:20.581Z,39.75
2018-02-15T06:13:56.922Z,57.00
2018-02-15T06:15:33.512Z,62.75
2018-02-15T06:17:10.371Z,61.00
2018-02-15T06:18:46.720Z,60.00
2018-02-15T06:20:23.083Z,47.25
2018-02-15T06:21:59.888Z,83.25
2018-02-15T06:23:37.453Z,68.00
2018-02-15T06:25:13.874Z,117.50
2018-02-15T06:26:51.044Z,32.00
2018-02-15T06:28:27.432Z,59.75
2018-02-15T06:30:05.251Z,24.00
2018-02-15T06:31:42.365Z,73.50
2018-02-15T06:33:18.745Z,98.25
2018-02-15T06:34:55.794Z,61.00
2018-02-15T06:36:32.677Z,82.25
2018-02-15T06:38:09.027Z,98.00
2018-02-15T06:39:45.573Z,42.75
2018-02-15T06:41:21.979Z,91.00
2018-02-15T06:42:58.870Z,81.50
2018-02-15T06:44:35.162Z,62.00
2018-02-15T06:46:12.464Z,66.00
2018-02-15T06:47:48.855Z,76.75
2018-02-15T06:49:25.649Z,82.25
2018-02-15T06:51:01.979Z,35.00
2018-02-15T06:54:22.249Z,31.75
2018-02-15T06:55:58.861Z,39.25
2018-02-15T06:57:35.344Z,47.00
2018-02-15T06:59:11.806Z,54.50
2018-02-15T07:00:48.475Z,38.25
2018-02-15T07:02:25.416Z,43.50
2018-02-15T07:04:01.948Z,59.50
2018-02-15T07:05:38.442Z,28.50
2018-02-15T07:07:15.537Z,83.00
2018-02-15T07:08:52.478Z,36.00
2018-02-15T07:10:28.910Z,37.50
2018-02-15T07:12:05.273Z,42.50
2018-02-15T07:13:42.491Z,35.75
2018-02-15T07:15:20.281Z,30.25
2018-02-15T07:16:57.718Z,46.00
2018-02-15T07:18:34.808Z,47.50
2018-02-15T07:20:12.006Z,36.00
2018-02-15T07:21:48.998Z,33.25
2018-02-15T07:23:25.334Z,23.75
2018-02-15T07:25:02.536Z,24.50
2018-02-15T07:26:39.611Z,64.50
2018-02-15T07:28:16.751Z,29.75
2018-02-15T07:29:53.320Z,38.25
2018-02-15T07:31:30.216Z,23.00
2018-02-15T07:33:07.372Z,31.50
2018-02-15T07:34:45.119Z,20.00
2018-02-15T07:36:21.516Z,34.00
2018-02-15T07:37:57.848Z,35.25
2018-02-15T07:39:34.684Z,44.25
2018-02-15T07:41:11.397Z,44.25
2018-02-15T07:42:48.551Z,31.75
2018-02-15T07:44:24.919Z,30.50
2018-02-15T07:46:01.542Z,39.25
2018-02-15T07:47:38.393Z,40.00
2018-02-15T07:49:15.625Z,36.25
2018-02-15T07:50:52.137Z,29.50
2018-02-15T07:52:29.445Z,80.50
2018-02-15T07:54:06.508Z,30.25
2018-02-15T07:55:43.042Z,36.00
2018-02-15T07:57:19.452Z,22.00
2018-02-15T07:58:55.986Z,55.00
2018-02-15T08:00:33.265Z,30.00
2018-02-15T08:02:09.786Z,29.25
2018-02-15T08:03:46.306Z,23.25
2018-02-15T08:05:23.568Z,38.50
2018-02-15T08:07:00.382Z,29.25
2018-02-15T08:08:36.756Z,34.25
2018-02-15T08:10:13.186Z,34.75
2018-02-15T08:11:49.649Z,22.50
2018-02-15T08:13:26.479Z,34.00
2018-02-15T08:15:03.000Z,36.25
2018-02-15T08:16:40.366Z,31.75
2018-02-15T08:18:16.709Z,27.00
2018-02-15T08:19:53.499Z,39.25
2018-02-15T08:21:29.969Z,28.50
2018-02-15T08:23:06.404Z,37.25
2018-02-15T08:24:42.773Z,32.00
2018-02-15T08:26:19.678Z,25.00
2018-02-15T08:27:56.153Z,30.25
2018-02-15T08:29:32.744Z,24.00
2018-02-15T08:31:10.146Z,34.75
2018-02-15T08:32:46.945Z,37.50
2018-02-15T08:34:23.343Z,43.75
2018-02-15T08:36:00.966Z,42.25
2018-02-15T08:37:37.553Z,24.25
2018-02-15T08:39:14.531Z,34.25
2018-02-15T08:40:50.789Z,68.25
2018-02-15T08:42:27.185Z,28.00
2018-02-15T08:44:03.773Z,21.00
2018-02-15T08:45:40.911Z,29.75
2018-02-15T08:47:17.246Z,25.50
2018-02-15T08:48:53.699Z,23.50
2018-02-15T08:50:30.085Z,34.00
2018-02-15T08:52:06.901Z,35.75
2018-02-15T08:53:44.854Z,30.50
2018-02-15T08:55:21.309Z,41.75
2018-02-15T08:56:58.459Z,18.50
2018-02-15T08:58:35.134Z,43.75
2018-02-15T09:00:12.136Z,14.00
2018-02-15T09:01:50.342Z,44.75
2018-02-15T09:03:28.180Z,31.25
2018-02-15T09:05:05.292Z,30.00
2018-02-15T09:06:41.703Z,23.25
2018-02-15T09:08:18.151Z,21.75
2018-02-15T09:09:54.542Z,27.25
2018-02-15T09:11:31.279Z,35.75
2018-02-15T09:13:08.446Z,34.25
2018-02-15T09:14:46.398Z,21.00
2018-02-15T09:16:23.211Z,36.75
2018-02-15T09:18:00.196Z,31.00
2018-02-15T09:19:37.125Z,57.00
2018-02-15T09:21:15.078Z,40.25
2018-02-15T09:22:52.516Z,28.00
2018-02-15T09:24:29.648Z,47.00
2018-02-15T09:26:06.897Z,29.75
2018-02-15T09:27:43.510Z,23.00
2018-02-15T09:29:20.085Z,34.00
2018-02-15T09:30:57.286Z,39.75
2018-02-15T09:32:34.314Z,30.75
2018-02-15T09:34:14.079Z,29.75
2018-02-15T09:35:51.203Z,26.75
2018-02-15T09:37:29.432Z,18.25
2018-02-15T09:39:06.040Z,35.50
2018-02-15T09:40:43.378Z,26.00
2018-02-15T09:42:19.782Z,47.50
2018-02-15T09:43:56.740Z,43.75
2018-02-15T09:45:33.653Z,28.00
2018-02-15T09:47:10.712Z,27.25
2018-02-15T09:48:47.067Z,28.50
2018-02-15T09:50:23.804Z,38.75
2018-02-15T09:52:00.131Z,34.75
2018-02-15T09:53:37.881Z,32.75
2018-02-15T09:55:14.214Z,27.75
2018-02-15T09:56:52.992Z,45.25
2018-02-15T09:58:29.704Z,30.25
2018-02-15T10:00:06.620Z,28.50
2018-02-15T10:01:43.481Z,42.75
2018-02-15T10:03:21.415Z,34.75
2018-02-15T10:04:58.452Z,42.50
2018-02-15T10:06:34.820Z,33.00
2018-02-15T10:08:11.061Z,23.50
2018-02-15T10:09:47.938Z,47.25
2018-02-15T10:11:24.261Z,34.25
2018-02-15T10:13:00.581Z,26.75
2018-02-15T10:14:36.857Z,53.00
2018-02-15T10:16:13.306Z,31.00
2018-02-15T10:17:50.496Z,35.25
2018-02-15T10:19:27.141Z,25.25
2018-02-15T10:21:03.788Z,39.25
2018-02-15T10:22:40.338Z,48.25
2018-02-15T10:24:16.613Z,36.50
2018-02-15T10:25:52.835Z,21.50
2018-02-15T10:27:30.107Z,25.00
2018-02-15T10:29:06.394Z,70.25
2018-02-15T10:30:43.389Z,41.25
2018-02-15T10:32:19.778Z,29.25
2018-02-15T10:33:56.455Z,33.00
2018-02-15T10:35:32.840Z,16.50
2018-02-15T10:37:09.275Z,39.50
2018-02-15T10:38:45.571Z,21.00
2018-02-15T10:40:22.424Z,32.00
2018-02-15T10:41:58.689Z,14.75
2018-02-15T10:43:35.013Z,27.50
2018-02-15T10:45:12.124Z,48.50
2018-02-15T10:46:51.805Z,26.25
2018-02-15T10:48:28.481Z,41.00
2018-02-15T10:50:05.710Z,42.25
2018-02-15T10:51:42.717Z,45.25
2018-02-15T10:53:19.407Z,44.50
2018-02-15T10:54:55.663Z,38.00
2018-02-15T10:56:32.529Z,39.25
2018-02-15T10:58:08.834Z,25.75
2018-02-15T10:59:45.515Z,21.50
2018-02-15T11:01:26.034Z,32.00
2018-02-15T11:03:06.262Z,42.75
2018-02-15T11:04:46.942Z,41.75
2018-02-15T11:06:23.728Z,48.50
2018-02-15T11:08:00.191Z,50.00
2018-02-15T11:09:36.747Z,21.00
2018-02-15T11:11:13.047Z,16.50
2018-02-15T11:12:49.758Z,31.50
2018-02-15T11:14:26.000Z,23.00
2018-02-15T11:16:02.678Z,32.75
2018-02-15T11:17:40.129Z,22.75
2018-02-15T11:19:16.872Z,20.50
2018-02-15T11:20:53.247Z,32.25
2018-02-15T11:22:29.802Z,31.75
2018-02-15T11:24:06.919Z,42.25
2018-02-15T11:25:44.271Z,39.00
2018-02-15T11:27:20.580Z,35.50
2018-02-15T11:28:58.486Z,44.00
2018-02-15T11:30:35.218Z,33.50
2018-02-15T11:32:11.979Z,43.00
2018-02-15T11:33:48.293Z,38.25
2018-02-15T11:35:24.833Z,45.75
2018-02-15T11:37:02.192Z,39.75
2018-02-15T11:38:38.989Z,41.25
2018-02-15T11:40:16.015Z,30.50
2018-02-15T11:41:52.809Z,33.25
2018-02-15T11:43:30.305Z,33.50
2018-02-15T11:45:08.289Z,38.25
2018-02-15T11:46:44.891Z,24.00
2018-02-15T11:48:21.996Z,20.75
2018-02-15T11:49:59.522Z,18.75
2018-02-15T11:51:36.501Z,22.75
2018-02-15T11:53:14.361Z,27.00
2018-02-15T11:54:52.571Z,25.25
2018-02-15T11:56:28.924Z,27.00
2018-02-15T11:58:05.962Z,27.50
2018-02-15T11:59:42.352Z,32.50
2018-02-15T12:01:19.772Z,47.25
2018-02-15T12:02:56.207Z,30.50
2018-02-15T12:04:33.873Z,26.50
2018-02-15T12:06:11.119Z,34.50
2018-02-15T12:07:47.564Z,30.50
2018-02-15T12:09:24.033Z,27.25
2018-02-15T12:11:01.231Z,38.25
2018-02-15T12:12:37.887Z,38.75
2018-02-15T12:14:14.405Z,15.00
2018-02-15T12:15:51.689Z,35.00
2018-02-15T12:17:29.210Z,22.75
2018-02-15T12:19:05.616Z,19.00
2018-02-15T12:20:42.111Z,21.50
2018-02-15T12:22:18.569Z,27.25
2018-02-15T12:23:57.373Z,14.25
2018-02-15T12:25:33.731Z,11.00
2018-02-15T12:27:10.051Z,14.00
2018-02-15T12:28:46.451Z,18.50
2018-02-15T12:30:26.305Z,36.00
2018-02-15T12:32:04.483Z,31.75
2018-02-15T12:33:41.140Z,25.25
2018-02-15T12:35:17.475Z,33.50
2018-02-15T12:36:54.514Z,29.50
2018-02-15T12:38:31.728Z,35.75
2018-02-15T12:40:08.122Z,27.50
2018-02-15T12:41:44.626Z,21.50
2018-02-15T12:43:22.231Z,25.25
2018-02-15T12:44:59.948Z,28.75
2018-02-15T12:46:36.831Z,28.25
2018-02-15T12:48:13.222Z,27.00
2018-02-15T12:49:50.009Z,33.75
2018-02-15T12:51:26.486Z,23.75
2018-02-15T12:53:03.886Z,34.75
2018-02-15T12:54:41.251Z,31.25
2018-02-15T12:56:17.596Z,33.00
2018-02-15T12:57:55.515Z,35.25
2018-02-15T12:59:32.397Z,33.50
2018-02-15T13:01:09.222Z,25.25
2018-02-15T13:02:46.016Z,16.75
2018-02-15T13:04:23.306Z,36.75
2018-02-15T13:05:59.822Z,35.75
2018-02-15T13:07:36.512Z,30.25
2018-02-15T13:09:13.465Z,28.50
2018-02-15T13:10:52.008Z,31.50
2018-02-15T13:12:44.040Z,21.50
2018-02-15T13:14:21.751Z,44.00
2018-02-15T13:17:08.995Z,33.50
2018-02-15T13:18:45.737Z,27.75
2018-02-15T13:20:23.098Z,28.25
2018-02-15T13:22:00.848Z,24.50
2018-02-15T13:23:37.891Z,22.00
2018-02-15T13:25:14.386Z,25.75
2018-02-15T13:26:52.364Z,32.25
2018-02-15T13:28:39.083Z,22.00
2018-02-15T13:30:18.239Z,28.75
2018-02-15T13:31:55.048Z,26.00
2018-02-15T13:33:31.678Z,22.25
2018-02-15T13:35:09.785Z,23.25
2018-02-15T13:36:46.379Z,17.50
2018-02-15T13:38:23.555Z,27.25
2018-02-15T13:40:00.779Z,20.75
2018-02-15T13:41:37.756Z,26.25
2018-02-15T13:43:14.147Z,18.50
2018-02-15T13:44:50.783Z,31.00
2018-02-15T13:46:27.383Z,28.50
2018-02-15T13:48:05.069Z,12.50
2018-02-15T13:49:42.272Z,29.75
2018-02-15T13:51:18.730Z,27.00
2018-02-15T13:52:55.791Z,35.50
2018-02-15T13:54:33.163Z,33.50
2018-02-15T13:56:10.362Z,26.75
2018-02-15T13:57:47.309Z,29.50
2018-02-15T13:59:24.860Z,33.50
2018-02-15T14:01:01.547Z,30.75
2018-02-15T14:02:38.587Z,27.75
2018-02-15T14:04:15.918Z,31.25
2018-02-15T14:05:53.334Z,18.00
2018-02-15T14:07:29.786Z,22.25
2018-02-15T14:09:07.039Z,26.50
2018-02-15T14:10:43.534Z,25.50
2018-02-15T14:12:20.240Z,29.00
2018-02-15T14:13:57.704Z,30.00
2018-02-15T14:15:34.783Z,28.50
2018-02-15T14:17:11.951Z,15.50
2018-02-15T14:18:48.878Z,24.75
2018-02-15T14:20:26.028Z,26.00
2018-02-15T14:22:04.309Z,30.25
2018-02-15T14:23:41.954Z,20.00
2018-02-15T14:25:18.894Z,38.25
2018-02-15T14:26:55.859Z,30.50
2018-02-15T14:28:33.880Z,20.00
2018-02-15T14:30:10.471Z,18.50
2018-02-15T14:31:48.328Z,17.75
2018-02-15T14:33:25.501Z,27.25
2018-02-15T14:35:04.057Z,29.00
2018-02-15T14:36:42.492Z,16.25
2018-02-15T14:38:24.548Z,23.75
2018-02-15T14:40:02.858Z,14.50
2018-02-15T14:41:40.493Z,25.00
2018-02-15T14:43:18.063Z,21.75
2018-02-15T14:44:54.852Z,28.00
2018-02-15T14:46:32.132Z,27.00
2018-02-15T14:49:47.611Z,31.50
2018-02-15T14:51:26.492Z,30.25
2018-02-15T14:53:05.613Z,27.25
2018-02-15T14:54:45.254Z,23.75
2018-02-15T14:56:25.007Z,32.00
2018-02-15T14:58:06.364Z,15.75
2018-02-15T14:59:44.596Z,16.25
2018-02-15T15:01:24.498Z,33.50
2018-02-15T15:03:04.798Z,12.00
2018-02-15T15:04:41.868Z,31.00
2018-02-15T15:06:21.073Z,25.75
2018-02-15T15:07:58.893Z,30.25
2018-02-15T15:09:38.028Z,21.50
2018-02-15T15:11:16.762Z,12.75
2018-02-15T15:12:54.514Z,21.75
2018-02-15T15:14:31.481Z,31.25
2018-02-15T15:16:13.479Z,26.00
2018-02-15T15:17:52.339Z,27.00
2018-02-15T15:19:29.277Z,12.25
2018-02-15T15:21:10.789Z,25.75
2018-02-15T15:22:49.255Z,34.00
2018-02-15T15:24:26.719Z,18.00
2018-02-15T15:26:04.399Z,31.00
2018-02-15T15:27:44.009Z,32.75
2018-02-15T15:29:22.631Z,24.25
2018-02-15T15:31:04.062Z,24.50
2018-02-15T15:32:44.653Z,19.00
2018-02-15T15:34:25.168Z,30.75
2018-02-15T15:36:17.333Z,26.25
2018-02-15T15:37:58.437Z,27.00
2018-02-15T15:39:37.420Z,24.25
2018-02-15T15:41:16.816Z,25.00
2018-02-15T15:42:57.283Z,28.00
2018-02-15T15:44:39.615Z,27.75
2018-02-15T15:46:19.645Z,24.25
2018-02-15T15:47:59.808Z,25.50
2018-02-15T15:49:38.398Z,25.50
2018-02-15T15:51:18.365Z,22.75
2018-02-15T15:52:58.334Z,25.50
2018-02-15T15:54:37.349Z,26.00
2018-02-15T15:56:16.193Z,27.25
2018-02-15T15:57:59.565Z,26.00
2018-02-15T15:59:39.759Z,25.50
2018-02-15T16:01:21.528Z,34.75
2018-02-15T16:03:01.725Z,36.50
2018-02-15T16:04:42.086Z,27.75
2018-02-15T16:06:23.025Z,27.75
2018-02-15T16:08:03.121Z,26.25
2018-02-15T16:09:44.415Z,32.50
2018-02-15T16:11:24.693Z,28.25
2018-02-15T16:13:04.398Z,21.75
2018-02-15T16:14:46.485Z,25.50
2018-02-15T16:16:25.869Z,39.25
2018-02-15T16:18:06.566Z,34.25
2018-02-15T16:19:47.316Z,19.50
2018-02-15T16:21:28.565Z,24.50
2018-02-15T16:23:08.869Z,30.00
2018-02-15T16:24:50.130Z,23.25
2018-02-15T16:26:30.580Z,27.25
2018-02-15T16:28:12.049Z,31.25
2018-02-15T16:29:51.053Z,30.50
2018-02-15T16:31:35.099Z,24.50
2018-02-15T16:33:15.860Z,30.75
2018-02-15T16:34:58.556Z,21.00
2018-02-15T16:36:39.895Z,28.00
2018-02-15T16:38:20.594Z,31.50
2018-02-15T16:40:05.340Z,26.25
2018-02-15T16:41:47.307Z,24.00
2018-02-15T16:43:26.205Z,27.00
2018-02-15T16:45:11.499Z,27.75
2018-02-15T16:46:51.644Z,28.25
2018-02-15T16:48:33.276Z,11.75
2018-02-15T16:50:13.065Z,25.50
2018-02-15T16:51:57.604Z,31.00
2018-02-15T16:53:37.743Z,33.50
2018-02-15T16:55:19.471Z,27.50
2018-02-15T16:56:58.624Z,32.75
2018-02-15T16:58:38.992Z,28.25
2018-02-15T17:00:20.562Z,31.50
2018-02-15T17:02:01.304Z,27.00
2018-02-15T17:03:47.822Z,28.25
2018-02-15T17:11:19.412Z,22.25
2018-02-15T17:13:01.335Z,35.25
2018-02-15T17:14:42.479Z,30.75
2018-02-15T17:16:24.606Z,29.50
2018-02-15T17:18:03.918Z,28.00
2018-02-15T17:19:44.869Z,32.25
2018-02-15T17:21:25.478Z,32.75
2018-02-15T17:23:10.598Z,35.75
2018-02-15T17:24:50.207Z,34.75
2018-02-15T17:26:30.984Z,31.50
2018-02-15T17:28:11.467Z,36.75
2018-02-15T17:29:53.280Z,31.50
2018-02-15T17:31:32.504Z,28.75
2018-02-15T17:33:11.608Z,29.75
2018-02-15T17:34:55.180Z,34.25
2018-02-15T17:36:37.198Z,28.25
2018-02-15T17:38:20.690Z,29.00
2018-02-15T17:40:04.943Z,31.00
2018-02-15T17:41:55.719Z,32.75
2018-02-15T17:43:38.589Z,35.25
2018-02-15T17:45:21.534Z,32.50
2018-02-15T17:47:13.058Z,35.25
2018-02-15T17:48:56.136Z,32.25
2018-02-15T17:50:44.772Z,38.00
2018-02-15T17:52:50.111Z,37.75
2018-02-15T17:54:36.878Z,34.25
2018-02-15T17:56:20.662Z,36.50
2018-02-15T17:58:04.575Z,27.75
2018-02-15T17:59:51.533Z,30.75
2018-02-15T18:01:42.410Z,42.00
2018-02-15T18:03:29.374Z,42.50
2018-02-15T18:05:28.894Z,43.75
2018-02-15T18:07:11.140Z,37.75
2018-02-15T18:10:30.114Z,38.75
2018-02-15T18:12:13.158Z,38.25
2018-02-15T18:13:54.837Z,35.00
2018-02-15T18:16:02.444Z,30.75
2018-02-15T18:19:44.933Z,29.50
2018-02-15T18:23:21.632Z,30.25
2018-02-15T18:25:05.129Z,38.00
2018-02-15T18:26:47.395Z,33.75
2018-02-15T18:28:34.035Z,38.75
2018-02-15T18:30:18.236Z,40.25
2018-02-15T18:32:03.503Z,38.25
2018-02-15T18:33:48.248Z,44.50
2018-02-15T18:35:34.919Z,38.75
2018-02-15T18:37:16.010Z,37.25
2018-02-15T18:38:57.351Z,37.25
2018-02-15T18:40:40.617Z,38.75
2018-02-15T18:42:22.860Z,42.50
2018-02-15T18:44:06.302Z,40.50
2018-02-15T18:45:52.379Z,36.00
2018-02-15T18:47:35.274Z,40.00
2018-02-15T18:49:25.917Z,32.75
2018-02-15T18:51:11.690Z,33.50
2018-02-15T18:52:59.257Z,29.50
2018-02-15T18:54:44.169Z,30.25
2018-02-15T18:56:28.347Z,33.00
2018-02-15T18:58:12.877Z,28.75
2018-02-15T18:59:54.133Z,36.00
2018-02-15T19:01:36.554Z,31.00
2018-02-15T19:03:20.899Z,35.50
2018-02-15T19:05:02.918Z,34.75
2018-02-15T19:06:48.024Z,31.25
2018-02-15T19:08:30.537Z,36.25
2018-02-15T19:10:13.592Z,32.25
2018-02-15T19:11:58.583Z,35.00
2018-02-15T19:13:41.734Z,30.75
2018-02-15T19:15:27.741Z,28.00
2018-02-15T19:17:14.643Z,33.50
2018-02-15T19:18:56.974Z,35.75
2018-02-15T19:20:55.721Z,34.00
2018-02-15T19:22:48.588Z,39.00
2018-02-15T19:24:49.568Z,34.75
2018-02-15T19:26:31.920Z,36.00
2018-02-15T19:28:17.378Z,39.25
2018-02-15T19:30:00.015Z,33.25
2018-02-15T19:31:42.978Z,37.50
2018-02-15T19:33:24.291Z,33.75
2018-02-15T19:35:05.825Z,34.75
2018-02-15T19:36:50.947Z,32.75
2018-02-15T19:38:34.758Z,31.50
2018-02-15T19:40:20.196Z,32.25
2018-02-15T19:42:03.455Z,32.00
2018-02-15T19:43:46.918Z,28.00
2018-02-15T19:45:32.710Z,30.25
2018-02-15T19:47:11.542Z,36.00
2018-02-15T19:48:53.921Z,31.50
2018-02-15T19:50:36.454Z,34.00
2018-02-15T19:52:19.303Z,34.25
2018-02-15T19:54:04.530Z,31.25
2018-02-15T19:55:56.273Z,34.75
2018-02-15T19:57:47.547Z,28.25
2018-02-15T19:59:35.087Z,34.25
2018-02-15T20:01:17.201Z,33.00
2018-02-15T20:02:59.107Z,39.00
2018-02-15T20:04:40.645Z,35.00
2018-02-15T20:06:23.690Z,32.75
2018-02-15T20:08:08.552Z,33.25
2018-02-15T20:09:50.484Z,30.50
2018-02-15T20:11:32.364Z,36.50
2018-02-15T20:13:16.030Z,36.00
2018-02-15T20:14:57.782Z,38.25
2018-02-15T20:16:41.186Z,39.00
2018-02-15T20:18:21.107Z,43.50
2018-02-15T20:20:05.465Z,31.50
2018-02-15T20:21:46.493Z,41.25
2018-02-15T20:23:34.478Z,46.25
2018-02-15T20:25:15.190Z,42.50
2018-02-15T20:26:59.861Z,48.50
2018-02-15T20:28:41.212Z,43.00
2018-02-15T20:30:24.638Z,37.50
2018-02-15T20:32:11.704Z,44.50
2018-02-15T20:33:56.032Z,41.25
2018-02-15T20:35:40.043Z,43.75
2018-02-15T20:37:23.401Z,36.75
2018-02-15T20:41:14.484Z,37.50
2018-02-15T20:42:53.250Z,39.25
2018-02-15T20:44:35.208Z,33.25
2018-02-15T20:46:22.802Z,37.50
2018-02-15T20:48:03.114Z,35.00
2018-02-15T20:49:48.080Z,30.50
2018-02-15T20:55:51.600Z,34.25
2018-02-15T20:57:34.529Z,32.50
2018-02-15T20:59:24.388Z,32.50
2018-02-15T21:01:05.832Z,35.75
2018-02-15T21:02:50.283Z,37.50
2018-02-15T21:04:34.895Z,41.25
2018-02-15T21:06:18.246Z,43.25
2018-02-15T21:08:15.104Z,41.75
2018-02-15T21:09:55.579Z,36.25
2018-02-15T21:11:35.925Z,37.50
2018-02-15T21:13:15.661Z,40.00
2018-02-15T21:14:53.733Z,45.50
2018-02-15T21:16:32.646Z,42.00
2018-02-15T21:18:13.299Z,39.50
2018-02-15T21:19:55.229Z,43.00
2018-02-15T21:21:35.984Z,39.75
2018-02-15T21:23:15.699Z,38.25
2018-02-15T21:24:56.711Z,40.25
2018-02-15T21:26:36.119Z,42.00
2018-02-15T21:28:17.286Z,42.25
2018-02-15T21:29:57.220Z,42.25
2018-02-15T21:31:36.814Z,38.75
2018-02-15T21:33:15.685Z,39.50
2018-02-15T21:34:54.562Z,43.75
2018-02-15T21:36:35.115Z,52.50
2018-02-15T21:38:13.831Z,43.50
2018-02-15T21:39:52.646Z,45.50